Time;durP1;ratioP1;P1;durP2;ratioP2;P2;SDS_P1;SDS_P2;PMS_P1;PMS_P2;Temp;Humidity;BMP_temperature;BMP_pressure;BME280_temperature;BME280_humidity;BME280_pressure;Samples;Min_cycle;Max_cycle;Signal;HPM_P1;HPM_P2
2022/12/29 00:01:02;;;;;;;18.75;11.48;;;;;;;1.59;79.02;101649.84;1771455;79;21280;-52
2022/12/29 00:04:08;;;;;;;22.15;10.98;;;;;;;1.60;79.03;101645.70;1761938;79;21217;-52
2022/12/29 00:07:14;;;;;;;19.67;10.38;;;;;;;1.62;78.99;101638.87;1764367;79;21796;-52
2022/12/29 00:10:21;;;;;;;18.73;11.78;;;;;;;1.65;78.96;101646.78;1771390;79;21162;-52
2022/12/29 00:16:52;;;;;;;22.60;12.68;;;;;;;1.70;79.00;101647.39;1771251;79;21201;-52
2022/12/29 00:37:04;;;;;;;26.25;14.47;;;;;;;1.73;79.08;101647.21;1771268;79;21225;-53
2022/12/29 00:47:04;;;;;;;26.52;14.78;;;;;;;1.60;78.98;101623.23;1771262;79;21205;-52
2022/12/29 00:50:09;;;;;;;25.85;15.00;;;;;;;1.52;78.86;101628.58;1770533;79;21238;-52
2022/12/29 00:53:15;;;;;;;27.87;15.30;;;;;;;1.47;78.83;101636.56;1771148;80;21217;-52
2022/12/29 00:56:21;;;;;;;27.02;15.60;;;;;;;1.42;78.90;101640.88;1771506;80;21196;-52
2022/12/29 00:59:28;;;;;;;26.77;14.90;;;;;;;1.37;78.87;101633.52;1771463;80;21197;-52
2022/12/29 01:02:33;;;;;;;28.83;15.55;;;;;;;1.34;78.89;101636.39;1771430;79;21201;-52
2022/12/29 01:05:43;;;;;;;23.95;15.32;;;;;;;1.34;79.00;101631.47;1771483;79;21229;-52
2022/12/29 01:10:09;;;;;;;25.68;14.58;;;;;;;1.33;79.04;101633.79;1772873;79;21181;-52
2022/12/29 01:11:56;;;;;;;27.35;15.75;;;;;;;1.31;79.11;101639.73;1772284;79;21208;-52
2022/12/29 01:15:01;;;;;;;24.40;14.78;;;;;;;1.29;79.11;101633.08;1772594;81;21201;-53
2022/12/29 01:18:06;;;;;;;26.07;14.23;;;;;;;1.28;79.13;101626.42;1773470;79;21260;-52
2022/12/29 01:21:13;;;;;;;26.48;14.07;;;;;;;1.25;79.15;101622.05;1767606;80;21629;-53
2022/12/29 01:24:19;;;;;;;19.95;12.90;;;;;;;1.23;79.18;101623.12;1772607;80;21182;-52
2022/12/29 01:27:24;;;;;;;21.40;12.55;;;;;;;1.20;79.19;101624.64;1772706;79;21752;-52
2022/12/29 01:30:31;;;;;;;22.85;13.38;;;;;;;1.18;79.20;101625.20;1772561;79;21193;-52
2022/12/29 01:33:36;;;;;;;19.35;12.18;;;;;;;1.14;79.15;101628.53;1772476;80;21213;-52
2022/12/29 01:36:42;;;;;;;28.35;13.93;;;;;;;1.08;78.97;101617.22;1773146;79;21217;-52
2022/12/29 01:39:49;;;;;;;25.75;14.20;;;;;;;1.06;78.95;101622.70;1767588;81;21184;-53
2022/12/29 01:42:57;;;;;;;31.02;14.98;;;;;;;1.04;78.99;101619.24;1772703;79;21209;-52
2022/12/29 01:46:03;;;;;;;28.10;15.80;;;;;;;1.04;79.06;101617.89;1767570;80;21279;-53
2022/12/29 01:49:19;;;;;;;30.05;15.90;;;;;;;1.06;79.12;101614.61;1767605;80;21189;-52
2022/12/29 01:52:25;;;;;;;25.52;15.43;;;;;;;1.10;79.14;101613.50;1767426;80;21208;-51
2022/12/29 01:55:32;;;;;;;24.30;14.47;;;;;;;1.12;79.12;101614.30;1772599;80;21222;-53
2022/12/29 01:58:41;;;;;;;22.75;14.83;;;;;;;1.15;79.11;101617.28;1772672;79;21189;-53
2022/12/29 02:01:47;;;;;;;22.00;13.68;;;;;;;1.16;79.12;101618.54;1767406;80;21196;-50
2022/12/29 02:04:53;;;;;;;26.48;14.10;;;;;;;1.21;79.11;101613.77;1772645;79;21173;-52
2022/12/29 02:08:01;;;;;;;25.57;15.00;;;;;;;1.23;79.15;101613.67;1763471;80;21209;-53
2022/12/29 02:11:07;;;;;;;22.48;13.98;;;;;;;1.26;79.17;101609.45;1771444;79;21205;-52
2022/12/29 02:14:20;;;;;;;22.93;13.83;;;;;;;1.28;79.16;101610.25;1770988;79;21189;-51
2022/12/29 02:17:50;;;;;;;27.67;13.28;;;;;;;1.30;79.18;101614.58;1770638;79;21209;-51
2022/12/29 02:21:17;;;;;;;20.92;13.95;;;;;;;1.32;79.20;101618.07;1770731;80;21193;-51
2022/12/29 02:24:49;;;;;;;20.45;12.95;;;;;;;1.33;79.14;101606.31;1770930;79;21189;-52
2022/12/29 02:28:12;;;;;;;23.42;13.08;;;;;;;1.32;79.11;101604.59;1770438;79;21212;-53
2022/12/29 02:31:32;;;;;;;22.95;12.73;;;;;;;1.34;79.09;101616.17;1771027;79;21219;-51
2022/12/29 02:34:52;;;;;;;24.72;13.62;;;;;;;1.34;79.07;101607.19;1760079;79;21213;-51
2022/12/29 02:38:26;;;;;;;22.67;13.83;;;;;;;1.33;79.05;101609.02;1770722;80;21194;-51
2022/12/29 02:41:40;;;;;;;23.27;14.00;;;;;;;1.34;79.09;101597.28;1770369;79;21209;-51
2022/12/29 02:45:24;;;;;;;23.80;14.38;;;;;;;1.38;79.14;101594.78;1770989;80;21193;-51
2022/12/29 02:48:44;;;;;;;25.50;14.90;;;;;;;1.43;79.17;101591.34;1770964;79;21189;-51
2022/12/29 02:52:16;;;;;;;21.15;14.13;;;;;;;1.46;79.16;101596.56;1771036;79;21272;-51
2022/12/29 02:55:22;;;;;;;23.30;14.38;;;;;;;1.51;79.24;101587.73;1771888;80;21261;-52
2022/12/29 02:58:30;;;;;;;21.87;12.93;;;;;;;1.53;79.22;101584.47;1770477;79;21682;-51
2022/12/29 03:02:19;;;;;;;22.45;14.07;;;;;;;1.56;79.16;101575.31;1770856;80;21197;-51
2022/12/29 03:06:09;;;;;;;21.25;13.55;;;;;;;1.56;79.19;101578.02;1771307;80;21193;-52
2022/12/29 03:09:30;;;;;;;26.12;13.93;;;;;;;1.63;79.27;101581.23;1771293;79;21193;-52
2022/12/29 03:16:32;;;;;;;24.95;13.53;;;;;;;1.67;79.22;101571.50;1770802;79;21225;-51
2022/12/29 03:19:52;;;;;;;19.95;12.07;;;;;;;1.71;79.24;101558.70;1771260;80;21185;-51
2022/12/29 03:23:00;;;;;;;16.42;11.57;;;;;;;1.73;79.21;101553.59;1771230;80;21255;-51
2022/12/29 03:26:05;;;;;;;20.17;12.23;;;;;;;1.75;79.14;101554.38;1771006;79;21184;-51
2022/12/29 03:29:13;;;;;;;16.67;11.60;;;;;;;1.77;79.13;101551.58;1770738;80;21197;-51
2022/12/29 03:32:20;;;;;;;18.07;10.63;;;;;;;1.78;79.13;101562.76;1770841;79;21194;-52
2022/12/29 03:35:30;;;;;;;18.82;11.00;;;;;;;1.80;79.16;101568.48;1771212;79;21185;-51
2022/12/29 03:38:48;;;;;;;17.37;10.40;;;;;;;1.85;79.18;101565.02;1770508;79;21189;-51
2022/12/29 03:41:53;;;;;;;17.42;11.15;;;;;;;1.88;79.18;101567.53;1771091;80;21251;-51
2022/12/29 03:45:02;;;;;;;18.60;11.78;;;;;;;1.91;79.18;101564.65;1770890;79;21248;-52
2022/12/29 03:48:09;;;;;;;19.82;11.78;;;;;;;1.94;79.16;101565.81;1770306;80;21228;-53
2022/12/29 03:51:18;;;;;;;19.73;11.68;;;;;;;1.96;79.08;101569.77;1770859;79;21216;-51
2022/12/29 03:54:24;;;;;;;20.52;12.20;;;;;;;1.97;79.09;101575.55;1770587;79;21240;-51
2022/12/29 03:57:31;;;;;;;19.60;12.58;;;;;;;2.00;79.07;101580.79;1771307;79;21256;-55
2022/12/29 04:00:39;;;;;;;27.05;18.17;;;;;;;1.99;78.97;101575.86;1770693;79;21174;-55
2022/12/29 04:03:47;;;;;;;28.10;17.12;;;;;;;1.97;78.92;101575.08;1770395;79;21269;-55
2022/12/29 04:06:52;;;;;;;22.05;14.65;;;;;;;1.99;78.94;101579.03;1770780;80;21232;-54
2022/12/29 04:10:00;;;;;;;21.75;13.22;;;;;;;2.01;78.99;101570.37;1779345;79;21251;-55
2022/12/29 04:13:06;;;;;;;20.10;13.35;;;;;;;2.02;78.99;101568.04;1770700;80;21241;-56
2022/12/29 04:16:13;;;;;;;18.30;12.13;;;;;;;2.03;79.02;101562.55;1770976;80;21182;-55
2022/12/29 04:19:20;;;;;;;18.73;12.73;;;;;;;2.04;78.94;101559.37;1770681;81;21310;-55
2022/12/29 04:22:27;;;;;;;22.10;13.93;;;;;;;2.02;78.84;101570.27;1771027;80;21197;-54
2022/12/29 04:25:33;;;;;;;20.48;14.50;;;;;;;2.04;78.87;101575.58;1773672;79;21186;-55
2022/12/29 04:28:39;;;;;;;20.00;13.25;;;;;;;2.05;78.91;101567.85;1802039;79;21321;-55
2022/12/29 04:32:03;;;;;;;61.23;36.85;;;;;;;2.06;78.94;101570.96;1802300;79;21441;-54
2022/12/29 04:35:11;;;;;;;25.40;15.65;;;;;;;2.06;78.97;101569.61;1802719;79;21202;-54
2022/12/29 04:38:18;;;;;;;19.42;13.75;;;;;;;2.05;79.02;101567.38;1802368;79;21182;-55
2022/12/29 04:41:27;;;;;;;18.02;12.93;;;;;;;2.08;79.02;101565.84;1802143;79;21256;-55
2022/12/29 04:44:35;;;;;;;19.82;13.60;;;;;;;2.09;79.03;101556.80;1801958;79;21190;-55
2022/12/29 04:48:00;;;;;;;22.07;13.08;;;;;;;2.09;78.96;101559.97;1802164;79;21256;-55
2022/12/29 04:51:07;;;;;;;20.17;13.13;;;;;;;2.04;78.91;101564.30;1801946;79;21765;-55
2022/12/29 04:54:14;;;;;;;17.75;12.33;;;;;;;2.02;78.92;101559.94;1801904;79;21186;-56
2022/12/29 04:57:22;;;;;;;20.82;12.78;;;;;;;2.00;78.98;101561.38;1792828;79;21197;-56
2022/12/29 05:00:30;;;;;;;20.82;13.78;;;;;;;2.03;78.92;101569.80;1802997;78;21178;-56
2022/12/29 05:03:36;;;;;;;23.12;14.13;;;;;;;2.02;78.88;101568.04;1802355;79;21236;-56
2022/12/29 05:06:42;;;;;;;23.95;14.00;;;;;;;2.02;78.90;101571.63;1802293;79;21166;-55
2022/12/29 05:09:49;;;;;;;24.90;15.18;;;;;;;2.02;78.95;101568.04;1801466;78;21213;-55
2022/12/29 05:12:55;;;;;;;26.15;17.70;;;;;;;2.02;78.94;101568.04;1802309;78;21575;-55
2022/12/29 05:15:59;;;;;;;28.83;18.05;;;;;;;2.00;78.87;101560.54;1795047;78;21205;-55
2022/12/29 05:19:05;;;;;;;24.80;16.00;;;;;;;1.98;78.86;101561.10;1802193;78;21193;-55
2022/12/29 05:22:10;;;;;;;24.27;15.48;;;;;;;1.97;78.90;101566.09;1794659;79;21334;-55
2022/12/29 05:25:17;;;;;;;24.67;14.70;;;;;;;1.96;78.95;101561.20;1802254;78;21297;-55
2022/12/29 05:28:34;;;;;;;26.02;15.13;;;;;;;1.94;78.93;101561.77;1802388;79;21185;-55
2022/12/29 05:31:41;;;;;;;23.67;14.03;;;;;;;1.93;78.96;101564.55;1802659;78;21339;-55
2022/12/29 05:34:49;;;;;;;22.90;13.78;;;;;;;1.92;79.01;101580.38;1802269;79;21174;-56
2022/12/29 05:37:57;;;;;;;27.02;15.13;;;;;;;1.90;79.03;101572.84;1802195;78;21642;-55
2022/12/29 05:41:03;;;;;;;24.35;14.83;;;;;;;1.86;79.03;101581.59;1802334;78;21895;-55
2022/12/29 05:44:13;;;;;;;26.20;15.60;;;;;;;1.83;79.03;101583.61;1790834;79;21185;-56
2022/12/29 05:47:20;;;;;;;28.57;15.78;;;;;;;1.80;78.97;101581.09;1799305;79;21205;-55
2022/12/29 05:50:31;;;;;;;26.42;14.95;;;;;;;1.78;78.96;101573.55;1802472;79;21316;-55
2022/12/29 05:53:36;;;;;;;27.85;15.58;;;;;;;1.77;78.96;101577.23;1786076;79;21190;-55
2022/12/29 05:56:43;;;;;;;245.20;99.72;;;;;;;1.75;78.89;101575.09;1801870;79;21186;-55
2022/12/29 05:59:50;;;;;;;60.25;29.67;;;;;;;1.75;78.95;101560.24;1802425;78;21240;-54
2022/12/29 06:02:58;;;;;;;33.25;17.40;;;;;;;1.78;78.95;101558.23;1789120;79;21224;-54
2022/12/29 06:06:05;;;;;;;22.48;13.10;;;;;;;1.81;78.96;101562.10;1777838;78;21168;-53
2022/12/29 06:09:12;;;;;;;18.52;13.03;;;;;;;1.84;78.97;101561.07;1798803;78;21188;-54
2022/12/29 06:12:19;;;;;;;22.25;12.53;;;;;;;1.83;78.98;101562.89;1771213;79;21753;-52
2022/12/29 06:15:24;;;;;;;38.35;17.90;;;;;;;1.83;78.99;101572.34;1763743;81;21216;-53
2022/12/29 06:18:32;;;;;;;31.10;14.65;;;;;;;1.84;79.02;101578.11;1771624;79;21201;-54
2022/12/29 06:21:39;;;;;;;20.48;12.28;;;;;;;1.86;79.02;101580.72;1800032;78;21244;-54
2022/12/29 06:24:45;;;;;;;18.00;12.03;;;;;;;1.82;78.95;101581.41;1761083;81;21185;-54
2022/12/29 06:27:52;;;;;;;21.93;12.85;;;;;;;1.80;78.92;101574.34;1768598;80;21185;-53
2022/12/29 06:31:01;;;;;;;23.67;13.78;;;;;;;1.80;78.95;101581.09;1776879;79;21724;-53
2022/12/29 06:34:08;;;;;;;19.20;12.33;;;;;;;1.82;78.97;101581.88;1791861;79;21210;-53
2022/12/29 06:37:14;;;;;;;20.95;13.50;;;;;;;1.84;78.97;101579.97;1785637;78;21745;-55
2022/12/29 06:40:21;;;;;;;20.35;13.10;;;;;;;1.87;78.95;101582.48;1783217;79;21225;-55
2022/12/29 06:43:47;;;;;;;22.25;13.60;;;;;;;1.87;78.91;101575.23;1796199;79;21241;-55
2022/12/29 06:47:10;;;;;;;26.97;15.03;;;;;;;1.91;78.88;101574.57;1775203;79;21204;-55
2022/12/29 06:50:17;;;;;;;31.57;18.30;;;;;;;1.93;78.86;101574.01;1789886;78;21166;-55
2022/12/29 06:53:28;;;;;;;28.27;15.72;;;;;;;1.91;78.78;101584.02;1800090;79;21443;-55
2022/12/29 06:56:36;;;;;;;22.87;14.05;;;;;;;1.91;78.77;101580.84;1799397;78;21248;-55
2022/12/29 06:59:44;;;;;;;24.63;14.85;;;;;;;1.93;78.77;101578.05;1789786;79;21484;-55
2022/12/29 07:02:51;;;;;;;26.05;16.05;;;;;;;1.96;78.76;101576.52;1769368;79;21279;-55
2022/12/29 07:05:58;;;;;;;22.93;14.53;;;;;;;1.95;78.70;101583.73;1769176;80;21722;-54
2022/12/29 07:09:02;;;;;;;25.55;15.53;;;;;;;1.96;78.70;101580.57;1767717;81;21170;-56
2022/12/29 07:12:09;;;;;;;22.58;14.15;;;;;;;1.96;78.71;101565.72;1767907;80;21210;-55
2022/12/29 07:15:16;;;;;;;21.85;13.75;;;;;;;1.95;78.68;101571.59;1769165;80;21185;-54
2022/12/29 07:18:21;;;;;;;19.70;12.88;;;;;;;1.97;78.62;101572.84;1769346;80;21280;-54
2022/12/29 07:21:28;;;;;;;28.27;15.23;;;;;;;2.01;78.66;101566.31;1782183;79;21722;-56
2022/12/29 07:24:35;;;;;;;23.38;14.35;;;;;;;2.09;78.64;101570.77;1794327;79;21212;-53
2022/12/29 07:27:45;;;;;;;20.43;13.90;;;;;;;2.17;78.67;101573.38;1795710;78;21224;-53
2022/12/29 07:30:56;;;;;;;23.18;15.75;;;;;;;2.23;78.67;101568.97;1786282;79;21402;-53
2022/12/29 07:34:01;;;;;;;21.17;13.95;;;;;;;2.33;78.71;101563.37;1783988;79;21240;-54
2022/12/29 07:37:10;;;;;;;40.95;24.35;;;;;;;2.40;78.72;101551.70;1775892;80;21267;-54
2022/12/29 07:40:59;;;;;;;23.57;14.05;;;;;;;2.45;78.68;101553.64;1792223;80;22070;-54
2022/12/29 07:44:11;;;;;;;17.75;11.97;;;;;;;2.47;78.62;101556.66;1692365;83;21235;-55
2022/12/29 07:47:19;;;;;;;20.30;11.63;;;;;;;2.49;78.64;101555.20;1716009;82;21209;-54
2022/12/29 07:50:23;;;;;;;18.92;11.38;;;;;;;2.49;78.63;101556.55;1693906;83;21618;-54
2022/12/29 07:53:29;;;;;;;17.48;11.20;;;;;;;2.50;78.65;101558.28;1691403;84;21773;-55
2022/12/29 07:56:36;;;;;;;21.70;12.23;;;;;;;2.53;78.65;101562.14;1721318;82;21763;-56
2022/12/29 07:59:48;;;;;;;19.15;11.70;;;;;;;2.56;78.63;101556.54;1685657;85;21240;-53
2022/12/29 08:02:56;;;;;;;21.30;11.63;;;;;;;2.60;78.70;101558.09;1717964;82;21256;-53
2022/12/29 08:06:03;;;;;;;21.90;12.03;;;;;;;2.61;78.68;101553.95;1686357;83;21262;-54
2022/12/29 08:09:09;;;;;;;21.90;12.47;;;;;;;2.66;78.69;101557.70;1667845;85;21204;-53
2022/12/29 08:12:19;;;;;;;24.70;13.13;;;;;;;2.72;78.75;101558.19;1717589;82;21210;-53
2022/12/29 08:15:26;;;;;;;21.12;11.68;;;;;;;2.78;78.75;101555.56;1722116;83;21183;-54
2022/12/29 08:18:32;;;;;;;17.70;10.90;;;;;;;2.85;78.77;101551.52;1684932;85;21742;-53
2022/12/29 08:21:38;;;;;;;26.82;14.55;;;;;;;2.92;78.77;101550.13;1727877;81;21765;-54
2022/12/29 08:24:43;;;;;;;18.10;10.72;;;;;;;2.97;78.76;101548.00;1728942;82;21212;-54
2022/12/29 08:28:09;;;;;;;19.27;11.05;;;;;;;2.99;78.74;101546.08;1725495;82;21237;-53
2022/12/29 08:31:15;;;;;;;22.02;11.65;;;;;;;3.04;78.76;101554.27;1732024;82;21401;-55
2022/12/29 08:34:24;;;;;;;20.80;13.15;;;;;;;3.11;78.74;101549.32;1699890;84;21381;-54
2022/12/29 08:37:30;;;;;;;18.80;11.28;;;;;;;3.16;78.68;101551.25;1699896;83;21284;-54
2022/12/29 08:40:37;;;;;;;20.68;10.72;;;;;;;3.20;78.62;101543.33;1725213;83;21241;-55
2022/12/29 08:43:42;;;;;;;17.37;10.70;;;;;;;3.25;78.64;101551.14;1725115;81;21341;-55
2022/12/29 08:46:51;;;;;;;15.65;8.70;;;;;;;3.32;78.70;101542.51;1725014;82;21233;-53
2022/12/29 08:50:03;;;;;;;23.10;11.20;;;;;;;3.37;78.70;101536.31;1724749;82;21222;-54
2022/12/29 08:53:09;;;;;;;15.35;10.43;;;;;;;3.41;78.71;101530.22;1724403;82;21276;-55
2022/12/29 08:56:17;;;;;;;17.45;10.72;;;;;;;3.43;78.67;101527.78;1724785;82;21406;-55
2022/12/29 08:59:23;;;;;;;21.77;13.15;;;;;;;3.49;78.68;101523.30;1724906;82;21341;-55
2022/12/29 09:02:31;;;;;;;22.00;12.37;;;;;;;3.61;78.66;101516.20;1724341;82;21225;-54
2022/12/29 09:05:38;;;;;;;17.17;10.65;;;;;;;3.77;78.57;101519.60;1724224;82;21201;-55
2022/12/29 09:08:44;;;;;;;20.30;10.75;;;;;;;3.86;78.45;101507.65;1722207;82;21252;-54
2022/12/29 09:11:52;;;;;;;50.20;23.47;;;;;;;3.96;78.41;101507.41;1724866;82;21718;-54
2022/12/29 09:15:04;;;;;;;15.13;9.53;;;;;;;4.09;78.40;101497.94;1725602;82;21244;-55
2022/12/29 09:18:15;;;;;;;15.20;9.28;;;;;;;4.21;78.39;101499.29;1726536;83;21173;-54
2022/12/29 09:21:18;;;;;;;15.48;8.23;;;;;;;4.33;78.32;101492.11;1726865;81;21208;-54
2022/12/29 09:24:13;;;;;;;12.93;8.60;;;;;;;4.41;78.24;101487.01;1726327;83;21216;-53
2022/12/29 09:27:19;;;;;;;15.20;8.38;;;;;;;4.46;78.22;101491.14;1725581;81;21643;-53
2022/12/29 09:30:24;;;;;;;15.05;9.05;;;;;;;4.48;78.12;101495.97;1725488;82;21733;-54
2022/12/29 09:33:33;;;;;;;16.32;9.75;;;;;;;4.55;78.11;101481.48;1710970;82;21216;-55
2022/12/29 09:36:39;;;;;;;15.18;7.80;;;;;;;4.61;78.04;101479.69;1725392;82;21212;-54
2022/12/29 09:39:46;;;;;;;15.43;8.20;;;;;;;4.68;77.97;101475.53;1725000;82;21713;-54
2022/12/29 09:43:03;;;;;;;14.00;8.78;;;;;;;4.71;77.87;101465.81;1724629;81;21227;-53
2022/12/29 09:46:33;;;;;;;14.78;8.25;;;;;;;4.74;77.85;101456.60;1720809;81;21773;-52
2022/12/29 09:49:52;;;;;;;11.25;7.28;;;;;;;4.80;77.76;101450.72;1731155;82;21255;-54
2022/12/29 09:53:25;;;;;;;16.35;8.48;;;;;;;4.87;77.75;101454.21;1704002;82;21227;-54
2022/12/29 09:56:33;;;;;;;21.42;8.50;;;;;;;4.92;77.63;101449.31;1719296;81;21351;-54
2022/12/29 09:59:48;;;;;;;10.98;7.00;;;;;;;4.97;77.57;101457.11;1720210;82;21840;-54
2022/12/29 10:03:21;;;;;;;9.68;6.55;;;;;;;5.00;77.56;101440.12;1709025;82;21194;-54
2022/12/29 10:06:40;;;;;;;10.75;6.55;;;;;;;5.10;77.53;101433.51;1652578;85;21224;-54
2022/12/29 10:10:06;;;;;;;10.88;5.97;;;;;;;5.18;77.50;101439.23;1681654;85;21231;-54
2022/12/29 10:13:32;;;;;;;13.93;7.25;;;;;;;5.25;77.48;101428.30;1677216;85;21211;-55
2022/12/29 10:17:04;;;;;;;11.20;6.55;;;;;;;5.34;77.40;101420.80;1653708;84;21256;-55
2022/12/29 10:20:21;;;;;;;12.65;7.10;;;;;;;5.39;77.34;101416.73;1714417;83;21311;-54
2022/12/29 10:23:54;;;;;;;16.40;8.98;;;;;;;5.44;77.22;101412.33;1690421;83;21562;-54
2022/12/29 10:27:00;;;;;;;14.38;6.87;;;;;;;5.50;77.20;101409.14;1715443;82;21707;-55
2022/12/29 10:30:06;;;;;;;11.83;6.67;;;;;;;5.56;77.11;101412.25;1692807;83;21267;-54
2022/12/29 10:33:13;;;;;;;10.50;6.83;;;;;;;5.60;77.06;101403.34;1715605;83;21832;-55
2022/12/29 10:36:26;;;;;;;13.05;5.97;;;;;;;5.69;77.11;101402.65;1690953;83;21240;-55
2022/12/29 10:39:48;;;;;;;16.05;8.50;;;;;;;5.78;77.13;101399.20;1663390;85;21227;-50
2022/12/29 10:42:58;;;;;;;11.03;6.50;;;;;;;5.82;77.08;101409.73;1684231;84;22138;-54
2022/12/29 10:46:16;;;;;;;9.08;5.47;;;;;;;5.85;77.04;101395.06;1722491;82;21216;-54
2022/12/29 10:49:25;;;;;;;10.28;6.50;;;;;;;5.82;76.87;101392.08;1724382;83;21247;-54
2022/12/29 10:52:31;;;;;;;11.60;6.22;;;;;;;5.77;76.78;101402.91;1742104;82;21385;-54
2022/12/29 10:55:43;;;;;;;15.20;6.90;;;;;;;5.72;76.80;101393.73;1742490;82;21216;-55
2022/12/29 10:58:50;;;;;;;11.20;6.20;;;;;;;5.68;76.76;101385.95;1714734;82;21834;-54
2022/12/29 11:02:19;;;;;;;12.13;6.47;;;;;;;5.70;76.81;101385.35;1676337;84;21248;-55
2022/12/29 11:05:47;;;;;;;11.80;6.50;;;;;;;5.68;76.76;101390.03;1715065;83;21197;-56
2022/12/29 11:09:10;;;;;;;11.25;6.83;;;;;;;5.72;76.85;101382.03;1716092;82;21193;-56
2022/12/29 11:12:36;;;;;;;11.10;6.35;;;;;;;5.75;76.77;101376.36;1719680;82;21249;-54
2022/12/29 11:16:00;;;;;;;12.00;6.65;;;;;;;5.73;76.78;101371.05;1692950;83;21236;-56
2022/12/29 11:19:12;;;;;;;11.45;6.72;;;;;;;5.79;76.86;101368.31;1703245;83;21796;-64
2022/12/29 11:22:31;;;;;;;10.32;6.80;;;;;;;5.90;76.91;101366.52;1714354;82;21222;-64
2022/12/29 11:25:38;;;;;;;12.65;6.75;;;;;;;5.97;76.85;101366.42;1705995;84;21201;-61
2022/12/29 11:28:46;;;;;;;11.90;6.78;;;;;;;6.01;76.85;101366.53;1707824;83;21238;-62
2022/12/29 11:32:03;;;;;;;10.85;6.65;;;;;;;6.03;76.82;101365.05;1711926;82;21274;-62
2022/12/29 11:35:09;;;;;;;13.10;6.95;;;;;;;6.04;76.79;101365.44;1708251;83;21713;-62
2022/12/29 11:38:24;;;;;;;12.45;6.72;;;;;;;6.05;76.84;101355.80;1679403;82;21204;-61
2022/12/29 11:41:39;;;;;;;14.75;7.72;;;;;;;6.07;76.79;101357.03;1725615;82;21196;-61
2022/12/29 11:44:49;;;;;;;13.03;6.80;;;;;;;6.09;76.82;101356.39;1671759;81;21213;-61
2022/12/29 11:47:59;;;;;;;13.80;7.05;;;;;;;6.12;76.75;101362.94;1697961;84;21236;-61
2022/12/29 11:51:07;;;;;;;13.25;7.25;;;;;;;6.09;76.64;101368.14;1708966;81;21777;-63
2022/12/29 11:54:18;;;;;;;13.58;6.92;;;;;;;6.03;76.54;101371.36;1710303;83;21192;-61
2022/12/29 11:57:25;;;;;;;14.43;7.83;;;;;;;5.97;76.59;101356.03;1728591;81;21212;-61
2022/12/29 12:00:32;;;;;;;12.00;7.10;;;;;;;5.98;76.73;101355.03;1721624;83;21785;-60
2022/12/29 12:03:43;;;;;;;12.25;7.80;;;;;;;5.99;76.77;101363.06;1703851;83;21734;-61
2022/12/29 12:07:03;;;;;;;15.72;8.30;;;;;;;5.99;76.72;101358.98;1716522;82;21235;-61
2022/12/29 12:10:11;;;;;;;16.80;9.28;;;;;;;6.00;76.80;101370.24;1727648;83;21256;-61
2022/12/29 12:13:44;;;;;;;14.73;8.80;;;;;;;6.01;76.73;101367.02;1726056;82;21834;-61
2022/12/29 12:16:59;;;;;;;11.65;7.08;;;;;;;5.96;76.64;101350.23;1715244;82;21309;-61
2022/12/29 12:20:28;;;;;;;12.58;7.55;;;;;;;5.91;76.60;101358.73;1716436;82;21470;-60
2022/12/29 12:23:59;;;;;;;19.37;9.18;;;;;;;5.85;76.56;101357.02;1695545;83;21344;-61
2022/12/29 12:27:19;;;;;;;15.05;8.80;;;;;;;5.78;76.56;101356.61;1705581;82;22297;-61
2022/12/29 12:30:29;;;;;;;13.03;8.23;;;;;;;5.72;76.54;101363.02;1729347;82;21220;-53
2022/12/29 12:33:42;;;;;;;12.07;7.78;;;;;;;5.65;76.65;101362.63;1727153;82;21228;-55
2022/12/29 12:37:00;;;;;;;13.75;7.53;;;;;;;5.64;76.71;101352.77;1723887;82;21315;-56
2022/12/29 12:40:43;;;;;;;15.13;7.25;;;;;;;5.63;76.76;101354.21;1711514;83;21178;-56
2022/12/29 12:44:02;;;;;;;10.10;6.97;;;;;;;5.60;76.71;101349.02;1717441;82;21787;-54
2022/12/29 12:47:22;;;;;;;17.00;8.33;;;;;;;5.52;76.67;101339.25;1719076;81;21216;-56
2022/12/29 12:50:43;;;;;;;12.25;8.20;;;;;;;5.47;76.70;101345.56;1699549;84;21230;-56
2022/12/29 12:54:31;;;;;;;15.98;9.23;;;;;;;5.41;76.72;101344.17;1650241;86;21236;-61
2022/12/29 12:58:05;;;;;;;20.60;8.85;;;;;;;5.37;76.67;101348.61;1686839;83;22088;-62
2022/12/29 13:01:45;;;;;;;15.38;8.23;;;;;;;5.26;76.63;101346.74;1711582;83;21786;-62
2022/12/29 13:05:27;;;;;;;14.78;8.30;;;;;;;5.18;76.68;101353.73;1726522;83;21786;-62
2022/12/29 13:09:15;;;;;;;15.23;8.10;;;;;;;5.13;76.70;101360.88;1693462;83;21211;-60
2022/12/29 13:12:39;;;;;;;11.10;7.60;;;;;;;5.07;76.77;101358.64;1707055;83;21725;-61
2022/12/29 13:16:09;;;;;;;16.55;9.33;;;;;;;5.02;76.72;101353.17;1718301;81;21221;-61
2022/12/29 13:20:09;;;;;;;17.52;9.38;;;;;;;4.98;76.77;101344.39;1679486;84;21248;-62
2022/12/29 13:23:37;;;;;;;17.92;10.90;;;;;;;4.96;76.78;101348.22;1696327;84;21236;-64
2022/12/29 13:27:00;;;;;;;25.97;13.83;;;;;;;4.91;76.77;101328.23;1707607;82;21226;-61
2022/12/29 13:30:21;;;;;;;18.23;8.95;;;;;;;4.89;76.81;101334.25;1693438;83;21904;-61
2022/12/29 13:33:54;;;;;;;15.10;8.00;;;;;;;4.84;76.79;101333.73;1664391;83;21393;-62
2022/12/29 13:37:20;;;;;;;13.90;7.75;;;;;;;4.80;76.85;101330.02;1691214;83;21322;-63
2022/12/29 13:40:36;;;;;;;15.13;7.75;;;;;;;4.78;76.95;101331.48;1709653;83;21235;-62
2022/12/29 13:43:50;;;;;;;13.03;7.33;;;;;;;4.75;76.92;101333.08;1665755;83;21278;-60
2022/12/29 13:46:57;;;;;;;10.00;6.70;;;;;;;4.73;76.90;101324.66;1710258;82;21708;-61
2022/12/29 13:50:06;;;;;;;12.47;8.30;;;;;;;4.70;76.97;101329.84;1721063;82;21274;-62
2022/12/29 13:53:50;;;;;;;11.43;7.27;;;;;;;4.69;76.97;101328.60;1699957;83;21255;-55
2022/12/29 13:57:20;;;;;;;14.85;7.85;;;;;;;4.63;76.95;101336.22;1722133;82;21856;-55
2022/12/29 14:00:30;;;;;;;14.98;8.45;;;;;;;4.58;77.00;101344.33;1722769;82;21268;-56
2022/12/29 14:03:58;;;;;;;16.02;8.95;;;;;;;4.56;77.12;101353.94;1711765;82;21238;-56
2022/12/29 14:07:21;;;;;;;27.45;14.43;;;;;;;4.56;77.22;101352.58;1725365;81;21236;-56
2022/12/29 14:10:39;;;;;;;;;;;;;;;4.57;77.25;101354.78;1682217;84;21204;-55
2022/12/29 14:13:49;;;;;;;16.48;8.78;;;;;;;4.55;77.23;101367.09;1714481;82;20215;-55
2022/12/29 14:16:57;;;;;;;16.70;8.80;;;;;;;4.52;77.19;101367.33;1710792;82;21526;-55
2022/12/29 14:20:04;;;;;;;16.12;9.78;;;;;;;4.50;77.16;101362.50;1723392;82;21714;-56
2022/12/29 14:23:22;;;;;;;34.10;19.87;;;;;;;4.46;77.12;101365.08;1718048;82;21260;-56
2022/12/29 14:26:40;;;;;;;18.90;11.10;;;;;;;4.44;77.14;101358.89;1705589;82;21556;-56
2022/12/29 14:29:50;;;;;;;13.03;9.03;;;;;;;4.41;77.18;101348.28;1720221;82;21308;-56
2022/12/29 14:33:20;;;;;;;17.25;8.83;;;;;;;4.39;77.14;101350.23;1721076;82;21205;-56
2022/12/29 14:36:37;;;;;;;19.02;7.95;;;;;;;4.38;77.12;101348.98;1720737;82;21244;-56
2022/12/29 14:39:52;;;;;;;15.90;9.10;;;;;;;4.36;77.11;101352.33;1707304;82;21280;-55
2022/12/29 14:43:04;;;;;;;14.73;8.03;;;;;;;4.36;77.14;101350.97;1723498;82;21327;-55
2022/12/29 14:46:12;;;;;;;13.40;7.42;;;;;;;4.35;77.12;101343.80;1722472;82;21236;-56
2022/12/29 14:49:25;;;;;;;17.65;9.68;;;;;;;4.34;77.08;101342.92;1663725;82;21228;-55
2022/12/29 14:52:32;;;;;;;11.83;7.28;;;;;;;4.32;77.01;101338.13;1722677;82;21863;-61
2022/12/29 14:55:53;;;;;;;12.75;6.97;;;;;;;4.31;76.98;101329.59;1721452;82;21240;-61
2022/12/29 14:59:07;;;;;;;12.47;7.35;;;;;;;4.30;76.96;101330.59;1722271;82;21547;-61
2022/12/29 15:02:28;;;;;;;14.85;7.87;;;;;;;4.30;76.99;101331.95;1711795;81;21863;-61
2022/12/29 15:05:39;;;;;;;11.97;6.75;;;;;;;4.29;76.99;101336.13;1726572;82;21243;-61
2022/12/29 15:08:50;;;;;;;15.23;7.03;;;;;;;4.27;76.95;101347.08;1692086;84;21570;-61
2022/12/29 15:12:03;;;;;;;11.60;7.42;;;;;;;4.26;76.94;101343.13;1696999;83;21999;-61
2022/12/29 15:15:31;;;;;;;13.40;7.40;;;;;;;4.26;76.92;101347.19;1693291;84;21248;-61
2022/12/29 15:18:42;;;;;;;12.63;7.58;;;;;;;4.24;76.93;101343.24;1714692;82;21847;-61
2022/12/29 15:21:48;;;;;;;12.65;6.95;;;;;;;4.24;76.94;101339.17;1694303;83;21509;-63
2022/12/29 15:24:55;;;;;;;13.30;7.62;;;;;;;4.22;76.95;101339.77;1662391;83;21240;-62